Time;durP1;ratioP1;P1;durP2;ratioP2;P2;SDS_P1;SDS_P2;PMS_P1;PMS_P2;Temp;Humidity;BMP_temperature;BMP_pressure;BME280_temperature;BME280_humidity;BME280_pressure;Samples;Min_cycle;Max_cycle;Signal;HPM_P1;HPM_P2
2023/09/27 00:01:24;;;;;;;0.15;0.15;;;;;;;16.75;83.38;94929.38;5070829;28;20207;-79
2023/09/27 00:03:51;;;;;;;3.03;1.30;;;;;;;16.74;83.35;94933.28;5072917;28;20664;-79
2023/09/27 00:06:18;;;;;;;1.85;1.75;;;;;;;16.69;83.77;94923.41;5070805;28;20686;-78
2023/09/27 00:08:45;;;;;;;0.32;0.32;;;;;;;16.76;83.74;94933.72;5070080;28;20215;-78
2023/09/27 00:11:12;;;;;;;0.20;0.20;;;;;;;16.75;83.78;94934.06;5070079;28;20234;-77
2023/09/27 00:13:38;;;;;;;0.40;0.30;;;;;;;16.67;84.09;94930.41;5069850;28;20207;-78
2023/09/27 00:16:07;;;;;;;1.40;0.55;;;;;;;16.64;84.58;94939.31;5070488;28;20571;-78
2023/09/27 00:18:33;;;;;;;0.60;0.60;;;;;;;16.67;84.57;94935.88;5069813;28;20237;-77
2023/09/27 00:21:00;;;;;;;0.55;0.55;;;;;;;16.62;84.73;94928.72;5069827;28;20211;-78
2023/09/27 00:23:27;;;;;;;0.40;0.32;;;;;;;16.63;84.83;94918.56;5070328;28;20569;-78
2023/09/27 00:25:54;;;;;;;0.20;0.20;;;;;;;16.64;84.79;94915.50;5069437;28;20210;-78
2023/09/27 00:28:21;;;;;;;0.32;0.32;;;;;;;16.60;84.93;94911.06;5070122;28;20207;-78
2023/09/27 00:30:50;;;;;;;0.20;0.20;;;;;;;16.56;85.04;94918.38;5069694;28;20599;-78
2023/09/27 00:33:19;;;;;;;0.43;0.43;;;;;;;16.59;85.02;94909.47;5069822;28;20317;-78
2023/09/27 00:35:49;;;;;;;0.22;0.22;;;;;;;16.65;84.21;94916.28;5069742;28;20567;-78
2023/09/27 00:38:16;;;;;;;0.35;0.35;;;;;;;16.60;84.69;94909.13;5069990;28;20245;-77
2023/09/27 00:40:46;;;;;;;0.40;0.40;;;;;;;16.54;85.17;94901.53;5069099;28;20217;-78
2023/09/27 00:43:26;;;;;;;0.25;0.25;;;;;;;16.53;85.08;94910.91;5069877;28;20577;-78
2023/09/27 00:45:54;;;;;;;0.20;0.20;;;;;;;16.45;85.23;94909.97;5069145;28;20202;-78
2023/09/27 00:48:22;;;;;;;0.10;0.10;;;;;;;16.45;85.08;94911.91;5069727;28;20305;-78
2023/09/27 00:50:49;;;;;;;0.10;0.10;;;;;;;16.41;84.70;94908.28;5069182;28;20210;-78
2023/09/27 00:53:16;;;;;;;0.20;0.20;;;;;;;16.32;85.64;94912.03;5069688;28;20237;-78
2023/09/27 00:55:43;;;;;;;0.30;0.30;;;;;;;16.31;85.33;94915.91;5068978;28;20210;-77
2023/09/27 00:58:11;;;;;;;0.20;0.20;;;;;;;16.26;85.26;94907.19;5069604;28;20218;-78
2023/09/27 01:00:39;;;;;;;0.15;0.15;;;;;;;16.20;85.62;94914.88;5069687;28;20603;-78
2023/09/27 01:03:05;;;;;;;0.10;0.10;;;;;;;16.12;85.74;94913.13;5071457;28;20389;-78
2023/09/27 01:05:34;;;;;;;0.63;0.50;;;;;;;16.06;86.30;94909.09;5069488;28;20237;-77
2023/09/27 01:08:01;;;;;;;0.30;0.30;;;;;;;16.01;86.18;94909.34;5069456;28;20563;-78
2023/09/27 01:10:27;;;;;;;0.20;0.20;;;;;;;16.00;86.12;94910.50;5069359;28;20321;-78
2023/09/27 01:12:54;;;;;;;0.28;0.28;;;;;;;15.95;86.04;94914.31;5069123;28;20625;-78
2023/09/27 01:15:21;;;;;;;0.20;0.20;;;;;;;15.95;85.24;94916.25;5069283;28;20211;-77
2023/09/27 01:17:56;;;;;;;0.63;0.50;;;;;;;15.98;84.95;94923.75;5069144;28;20210;-78
2023/09/27 01:20:24;;;;;;;2.65;1.48;;;;;;;15.99;85.47;94914.38;5069566;28;20217;-77
2023/09/27 01:22:56;;;;;;;1.83;1.40;;;;;;;15.99;84.54;94914.38;5069387;28;20252;-76
2023/09/27 01:25:27;;;;;;;5.97;1.60;;;;;;;15.98;84.55;94912.81;5069783;28;20293;-79
2023/09/27 01:27:53;;;;;;;1.92;1.38;;;;;;;15.92;84.99;94916.94;5069370;28;20198;-77
2023/09/27 01:30:20;;;;;;;2.75;1.20;;;;;;;15.95;84.58;94908.03;5052973;28;20213;-77
2023/09/27 01:32:47;;;;;;;0.22;0.22;;;;;;;15.92;84.68;94908.75;5069487;28;20568;-77
2023/09/27 01:35:14;;;;;;;0.10;0.10;;;;;;;15.88;84.81;94907.84;5069100;28;20252;-77
2023/09/27 01:37:41;;;;;;;0.10;0.10;;;;;;;15.86;84.84;94912.88;5069343;28;20609;-77
2023/09/27 01:40:14;;;;;;;0.25;0.25;;;;;;;15.85;85.34;94919.53;5069044;28;20304;-78
2023/09/27 01:42:43;;;;;;;0.20;0.20;;;;;;;15.84;84.98;94923.41;5069429;28;20575;-77
2023/09/27 01:45:12;;;;;;;0.30;0.30;;;;;;;15.81;84.88;94918.63;5070250;28;20207;-78
2023/09/27 01:47:39;;;;;;;1.00;0.30;;;;;;;15.87;84.55;94906.28;5069882;28;20214;-79
2023/09/27 01:50:08;;;;;;;0.30;0.30;;;;;;;15.82;84.28;94914.75;5069688;28;20244;-77
2023/09/27 01:52:35;;;;;;;0.10;0.10;;;;;;;15.82;84.45;94909.28;5069996;28;20233;-78
2023/09/27 01:55:02;;;;;;;0.20;0.20;;;;;;;15.80;84.53;94912.38;5069647;28;20214;-78
2023/09/27 01:57:30;;;;;;;2.03;0.32;;;;;;;15.78;84.78;94919.31;5070014;28;20575;-79
2023/09/27 01:59:57;;;;;;;0.30;0.30;;;;;;;15.81;84.37;94913.16;5069682;28;20547;-79
2023/09/27 02:02:24;;;;;;;0.47;0.25;;;;;;;15.81;84.16;94902.25;5066112;28;20306;-77
2023/09/27 02:04:51;;;;;;;0.20;0.20;;;;;;;15.79;84.57;94910.00;5073031;28;20617;-77
2023/09/27 02:07:18;;;;;;;0.10;0.10;;;;;;;15.76;84.75;94910.69;5073345;28;20579;-77
2023/09/27 02:09:44;;;;;;;0.10;0.10;;;;;;;15.73;85.10;94911.38;5072773;28;20206;-76
2023/09/27 02:12:11;;;;;;;0.25;0.25;;;;;;;15.66;85.68;94914.75;5069409;28;20233;-79
2023/09/27 02:14:39;;;;;;;0.22;0.22;;;;;;;15.57;86.29;94909.47;5072868;28;20217;-79
2023/09/27 02:17:07;;;;;;;0.20;0.20;;;;;;;15.57;86.21;94912.22;5073161;28;20277;-78
2023/09/27 02:19:34;;;;;;;0.47;0.47;;;;;;;15.51;86.84;94905.38;5070117;28;20556;-78
2023/09/27 02:22:01;;;;;;;0.40;0.40;;;;;;;15.52;87.02;94917.91;5069342;28;20270;-78
2023/09/27 02:24:28;;;;;;;0.22;0.22;;;;;;;15.52;87.38;94912.44;5066912;28;20234;-79
2023/09/27 02:26:55;;;;;;;0.20;0.20;;;;;;;15.46;87.66;94913.81;5064014;28;20204;-78
2023/09/27 02:29:22;;;;;;;0.32;0.32;;;;;;;15.46;88.13;94911.09;5065478;28;20777;-78
2023/09/27 02:31:50;;;;;;;0.32;0.32;;;;;;;15.45;88.30;94909.50;5066087;28;20256;-78
2023/09/27 02:34:17;;;;;;;0.10;0.10;;;;;;;15.38;89.17;94920.25;5066435;28;20206;-78
2023/09/27 02:36:44;;;;;;;1.10;0.90;;;;;;;15.34;89.56;94916.63;5066982;28;20199;-78
2023/09/27 02:39:11;;;;;;;1.45;0.65;;;;;;;15.26;90.64;94914.88;5073235;28;20229;-79
2023/09/27 02:41:38;;;;;;;0.25;0.25;;;;;;;15.19;92.47;94920.13;5072802;28;20238;-78
2023/09/27 02:44:05;;;;;;;0.20;0.20;;;;;;;15.14;93.44;94923.91;5072703;28;20256;-79
2023/09/27 02:46:32;;;;;;;0.10;0.10;;;;;;;15.12;93.23;94919.94;5072941;28;20199;-78
2023/09/27 02:49:01;;;;;;;0.20;0.20;;;;;;;15.10;93.16;94923.03;5073086;28;20601;-79
2023/09/27 02:51:28;;;;;;;0.63;0.63;;;;;;;15.07;93.01;94928.38;5069128;28;20210;-79
2023/09/27 02:53:54;;;;;;;0.10;0.10;;;;;;;15.06;92.73;94933.03;5072201;28;20635;-79
2023/09/27 02:56:21;;;;;;;0.43;0.43;;;;;;;15.03;93.52;94927.50;5072535;28;20219;-78
2023/09/27 02:58:48;;;;;;;0.73;0.73;;;;;;;15.03;96.29;94928.31;5072096;28;20329;-79
2023/09/27 03:01:15;;;;;;;0.93;0.93;;;;;;;14.94;97.05;94922.19;5072346;28;20206;-78
2023/09/27 03:03:42;;;;;;;0.22;0.22;;;;;;;14.88;100.00;94935.28;5079088;28;20210;-78
2023/09/27 03:06:14;;;;;;;0.40;0.35;;;;;;;14.82;100.00;94928.50;5072363;28;20581;-79
2023/09/27 03:08:43;;;;;;;0.32;0.22;;;;;;;14.77;100.00;94931.44;5072231;28;20203;-78
2023/09/27 03:11:09;;;;;;;0.30;0.30;;;;;;;14.78;100.00;94938.50;5071932;28;20242;-78
2023/09/27 03:13:37;;;;;;;0.20;0.20;;;;;;;14.75;100.00;94939.22;5070757;28;20564;-78
2023/09/27 03:16:04;;;;;;;0.95;0.50;;;;;;;14.78;100.00;94943.16;5071947;28;20209;-79
2023/09/27 03:18:31;;;;;;;0.20;0.20;;;;;;;14.76;100.00;94932.59;5072122;28;20211;-79
2023/09/27 03:20:58;;;;;;;5.28;1.60;;;;;;;14.72;100.00;94939.91;5071753;28;20199;-78
2023/09/27 03:23:27;;;;;;;0.15;0.15;;;;;;;14.76;100.00;94940.00;5072394;28;20211;-79
2023/09/27 03:25:55;;;;;;;0.20;0.20;;;;;;;14.77;94.64;94942.34;5068097;28;20303;-78
2023/09/27 03:28:22;;;;;;;0.45;0.45;;;;;;;14.81;93.37;94926.09;5065204;28;20215;-78
2023/09/27 03:30:49;;;;;;;0.98;0.60;;;;;;;14.83;91.33;94937.47;5060105;28;20208;-78
2023/09/27 03:33:16;;;;;;;0.38;0.38;;;;;;;14.84;89.55;94939.84;5066198;28;20231;-79
2023/09/27 03:35:43;;;;;;;0.50;0.50;;;;;;;14.88;88.40;94938.03;5064652;28;20200;-79
2023/09/27 03:38:11;;;;;;;0.25;0.25;;;;;;;14.86;88.22;94940.31;5069113;28;20214;-79
2023/09/27 03:40:41;;;;;;;0.20;0.20;;;;;;;14.92;87.27;94949.00;5067606;28;20613;-80
2023/09/27 03:43:08;;;;;;;0.30;0.30;;;;;;;14.92;86.92;94944.34;5063466;28;20211;-79
2023/09/27 03:45:36;;;;;;;0.20;0.20;;;;;;;14.90;86.74;94945.84;5062735;28;20214;-78
2023/09/27 03:48:03;;;;;;;0.10;0.10;;;;;;;14.88;86.96;94938.03;5060976;28;20619;-78
2023/09/27 03:50:30;;;;;;;0.30;0.30;;;;;;;14.81;87.47;94948.72;5059760;28;20323;-78
2023/09/27 03:52:57;;;;;;;0.63;0.63;;;;;;;14.80;90.06;94952.59;5075226;28;20227;-77
2023/09/27 03:55:24;;;;;;;0.38;0.38;;;;;;;14.77;90.00;94947.81;5073520;28;20206;-78
2023/09/27 03:57:53;;;;;;;0.25;0.25;;;;;;;14.80;89.44;94952.59;5071366;28;20331;-78
2023/09/27 04:00:20;;;;;;;0.20;0.20;;;;;;;14.82;88.01;94944.84;5071280;28;20203;-77
2023/09/27 04:02:47;;;;;;;0.38;0.32;;;;;;;14.87;86.45;94952.00;5071257;28;20203;-78
2023/09/27 04:05:15;;;;;;;0.30;0.30;;;;;;;14.89;85.92;94953.25;5070499;28;20618;-78
2023/09/27 04:07:42;;;;;;;0.57;0.57;;;;;;;14.92;85.91;94952.53;5071002;28;20619;-77
2023/09/27 04:10:10;;;;;;;0.60;0.60;;;;;;;14.92;85.46;94955.25;5071134;28;20622;-78
2023/09/27 04:12:37;;;;;;;0.35;0.35;;;;;;;14.90;85.51;94952.09;5071046;28;20296;-75
2023/09/27 04:15:09;;;;;;;0.17;0.17;;;;;;;14.91;85.88;94959.13;5071162;28;20631;-77
2023/09/27 04:17:37;;;;;;;0.50;0.50;;;;;;;14.89;85.61;94964.16;5071668;28;20198;-77
2023/09/27 04:20:14;;;;;;;0.20;0.20;;;;;;;14.88;85.60;94959.84;5071264;28;20596;-77
2023/09/27 04:22:43;;;;;;;0.20;0.20;;;;;;;14.94;85.28;94957.66;5070667;28;20218;-77
2023/09/27 04:25:12;;;;;;;0.38;0.38;;;;;;;14.99;85.02;94964.81;5070920;28;20619;-77
2023/09/27 04:27:40;;;;;;;0.40;0.40;;;;;;;15.01;84.77;94957.06;5071025;28;20594;-78
2023/09/27 04:30:11;;;;;;;0.28;0.28;;;;;;;15.11;84.08;94956.56;5071196;28;20614;-78
2023/09/27 04:32:40;;;;;;;0.38;0.30;;;;;;;15.18;83.79;94963.00;5071190;28;20579;-77
2023/09/27 04:35:08;;;;;;;0.35;0.35;;;;;;;15.20;83.57;94955.25;5070509;28;20219;-77
2023/09/27 04:37:35;;;;;;;0.52;0.52;;;;;;;15.36;83.72;94963.50;5070774;28;20211;-77
2023/09/27 04:40:04;;;;;;;0.30;0.30;;;;;;;15.49;82.92;94973.19;5070394;28;20199;-76
2023/09/27 04:42:31;;;;;;;0.45;0.45;;;;;;;15.63;82.54;94965.41;5070707;28;20245;-77
2023/09/27 04:44:57;;;;;;;0.20;0.20;;;;;;;15.82;81.28;94970.19;5070244;28;20214;-75
2023/09/27 04:47:26;;;;;;;0.30;0.30;;;;;;;16.04;81.00;94966.03;5070629;28;20207;-75
2023/09/27 04:49:54;;;;;;;0.20;0.20;;;;;;;16.18;79.72;94966.38;5070754;28;20203;-75
2023/09/27 04:52:21;;;;;;;0.30;0.30;;;;;;;16.44;78.38;94967.72;5071137;28;20287;-74
2023/09/27 04:54:48;;;;;;;1.20;0.93;;;;;;;16.73;77.16;94971.94;5070460;28;20346;-74
2023/09/27 04:57:14;;;;;;;0.40;0.40;;;;;;;16.99;76.16;94961.94;5070858;28;20614;-74
2023/09/27 04:59:42;;;;;;;0.20;0.20;;;;;;;17.40;74.55;94965.88;5070557;28;20214;-74
2023/09/27 05:02:08;;;;;;;0.30;0.30;;;;;;;18.01;72.61;94967.00;5070661;28;20306;-76
2023/09/27 05:04:37;;;;;;;0.40;0.40;;;;;;;18.25;71.29;94971.28;5070258;28;20676;-76
2023/09/27 05:07:04;;;;;;;0.40;0.40;;;;;;;18.31;70.79;94964.34;5070402;28;20208;-75
2023/09/27 05:09:31;;;;;;;0.20;0.20;;;;;;;18.24;70.87;94972.44;5070472;28;20561;-76
2023/09/27 05:11:58;;;;;;;0.30;0.30;;;;;;;18.05;71.45;94967.81;5070313;28;20698;-74
2023/09/27 05:14:25;;;;;;;0.40;0.40;;;;;;;18.15;71.35;94967.22;5070513;28;20697;-75
2023/09/27 05:16:51;;;;;;;0.30;0.30;;;;;;;18.29;70.87;94970.19;5070381;28;20566;-75
2023/09/27 05:19:18;;;;;;;0.20;0.20;;;;;;;18.38;70.86;94969.94;5070681;28;20616;-75
2023/09/27 05:21:47;;;;;;;0.43;0.38;;;;;;;18.44;70.39;94973.97;5070250;28;20252;-76
2023/09/27 05:24:13;;;;;;;1.02;0.95;;;;;;;18.32;70.65;94972.19;5070701;28;20207;-74
2023/09/27 05:26:40;;;;;;;0.35;0.35;;;;;;;18.30;71.76;94969.03;5070011;28;20211;-75
2023/09/27 05:29:13;;;;;;;2.88;1.90;;;;;;;18.41;70.75;94974.69;5070391;28;20374;-75
2023/09/27 05:31:40;;;;;;;0.40;0.35;;;;;;;18.29;71.10;94961.97;5066746;28;20203;-76
2023/09/27 05:34:07;;;;;;;0.25;0.25;;;;;;;18.24;71.30;94965.00;5070584;28;20231;-74
2023/09/27 05:36:34;;;;;;;0.38;0.38;;;;;;;18.31;71.72;94967.84;5071377;28;20276;-74
2023/09/27 05:39:05;;;;;;;0.35;0.28;;;;;;;18.52;70.93;94974.84;5073937;28;20210;-74
2023/09/27 05:41:33;;;;;;;1.25;0.82;;;;;;;18.78;70.33;94974.84;5073787;28;20530;-75
2023/09/27 05:43:59;;;;;;;0.90;0.60;;;;;;;18.94;68.73;94964.50;5074007;28;20206;-75
2023/09/27 05:46:28;;;;;;;0.80;0.80;;;;;;;19.23;67.70;94970.34;5073799;28;20207;-76
2023/09/27 05:48:55;;;;;;;2.72;1.27;;;;;;;19.64;66.95;94973.97;5073655;28;20219;-75
2023/09/27 05:51:22;;;;;;;2.00;0.90;;;;;;;20.01;66.04;94971.19;5073406;28;20290;-75
2023/09/27 05:53:52;;;;;;;0.50;0.50;;;;;;;20.34;64.60;94968.34;5072974;28;20304;-75
2023/09/27 05:56:20;;;;;;;0.60;0.60;;;;;;;20.92;62.19;94967.56;5074015;28;20203;-77
2023/09/27 05:58:47;;;;;;;0.77;0.73;;;;;;;21.18;61.57;94967.28;5073445;28;20210;-76
2023/09/27 06:01:19;;;;;;;1.67;1.20;;;;;;;21.19;60.98;94963.38;5074114;28;20637;-76
2023/09/27 06:03:46;;;;;;;1.50;1.10;;;;;;;20.65;61.99;94978.00;5072459;28;20206;-76
2023/09/27 06:06:13;;;;;;;0.45;0.45;;;;;;;20.93;61.59;94972.69;5073393;28;20294;-75
2023/09/27 06:08:40;;;;;;;0.40;0.40;;;;;;;21.01;60.97;94978.25;5072223;28;20214;-76
2023/09/27 06:11:09;;;;;;;0.30;0.30;;;;;;;21.60;59.39;94966.69;5073053;28;20261;-75
2023/09/27 06:13:37;;;;;;;0.30;0.30;;;;;;;21.70;58.58;94975.41;5073223;28;20569;-76
2023/09/27 06:16:13;;;;;;;1.52;0.85;;;;;;;21.61;58.72;94978.50;5072894;28;20214;-74
2023/09/27 06:18:40;;;;;;;0.80;0.40;;;;;;;22.14;57.54;94973.13;5073549;28;20202;-74
2023/09/27 06:21:07;;;;;;;1.63;1.20;;;;;;;23.04;55.86;94980.19;5073422;28;20617;-74
2023/09/27 06:23:35;;;;;;;1.10;1.00;;;;;;;23.40;53.41;94981.63;5072824;28;20201;-77
2023/09/27 06:26:02;;;;;;;0.45;0.45;;;;;;;23.12;54.25;94984.50;5072983;28;20544;-77
2023/09/27 06:28:28;;;;;;;1.60;1.30;;;;;;;22.50;54.53;94984.97;5073288;28;20663;-77
2023/09/27 06:30:57;;;;;;;0.50;0.50;;;;;;;21.79;56.81;94989.59;5073065;28;20207;-77
2023/09/27 06:33:24;;;;;;;0.20;0.20;;;;;;;21.53;57.96;94993.47;5073029;28;20701;-75
2023/09/27 06:35:50;;;;;;;0.95;0.25;;;;;;;22.05;56.92;94996.75;5073010;28;20233;-78
2023/09/27 06:38:21;;;;;;;0.30;0.30;;;;;;;22.61;55.69;94991.28;5073160;28;20563;-76
2023/09/27 06:40:48;;;;;;;0.52;0.52;;;;;;;23.40;53.82;94992.69;5073070;28;20571;-76
2023/09/27 06:43:15;;;;;;;1.77;1.30;;;;;;;23.35;52.73;94984.06;5072856;28;20298;-77
2023/09/27 06:45:42;;;;;;;1.20;0.75;;;;;;;23.56;51.88;94986.75;5072042;28;20217;-78
2023/09/27 06:48:11;;;;;;;0.77;0.73;;;;;;;22.96;52.93;94990.44;5072989;28;20233;-77
2023/09/27 06:50:42;;;;;;;0.40;0.40;;;;;;;22.06;55.35;94992.84;5072637;28;20203;-75
2023/09/27 06:53:09;;;;;;;0.30;0.30;;;;;;;22.27;55.26;94992.88;5072758;28;20223;-75
2023/09/27 06:55:36;;;;;;;1.20;1.10;;;;;;;22.01;55.62;94984.94;5072534;28;20210;-73
2023/09/27 06:58:03;;;;;;;0.65;0.50;;;;;;;21.91;56.47;95003.81;5072556;28;20213;-75
2023/09/27 07:00:30;;;;;;;1.30;1.20;;;;;;;22.28;55.09;94991.66;5072861;28;20237;-76
2023/09/27 07:02:57;;;;;;;1.98;1.17;;;;;;;22.46;54.63;94995.22;5071892;28;20210;-75
2023/09/27 07:05:26;;;;;;;0.38;0.38;;;;;;;22.23;55.60;95000.34;5072617;28;20199;-75
2023/09/27 07:07:53;;;;;;;6.80;0.90;;;;;;;22.05;56.40;95007.81;5071990;28;20207;-74
2023/09/27 07:10:21;;;;;;;0.43;0.43;;;;;;;21.96;56.24;95010.91;5072057;28;20250;-73
2023/09/27 07:12:48;;;;;;;0.40;0.40;;;;;;;21.32;57.27;95015.44;5072131;28;20561;-72
2023/09/27 07:15:15;;;;;;;1.98;1.02;;;;;;;21.05;57.61;95012.88;5072208;28;20229;-73
2023/09/27 07:17:43;;;;;;;0.30;0.30;;;;;;;21.11;58.29;95016.88;5072364;28;20207;-74
2023/09/27 07:20:16;;;;;;;0.30;0.30;;;;;;;21.55;56.81;95013.16;5072096;28;20240;-72
2023/09/27 07:22:45;;;;;;;0.22;0.22;;;;;;;21.53;56.95;95021.03;5071918;28;20227;-75
2023/09/27 07:25:14;;;;;;;0.40;0.40;;;;;;;21.60;56.63;95018.28;5072036;28;20206;-72
2023/09/27 07:27:42;;;;;;;0.45;0.45;;;;;;;21.46;56.72;95009.97;5071904;28;20199;-73
2023/09/27 07:30:11;;;;;;;0.25;0.25;;;;;;;21.03;57.89;95019.97;5071889;28;20214;-74
2023/09/27 07:32:39;;;;;;;1.70;1.05;;;;;;;20.88;58.81;95019.09;5071667;28;20252;-74
2023/09/27 07:35:09;;;;;;;1.35;0.57;;;;;;;20.97;58.06;95019.53;5071292;28;20227;-74
2023/09/27 07:37:37;;;;;;;3.38;0.50;;;;;;;21.51;57.21;95015.09;5071854;28;20207;-74
2023/09/27 07:40:12;;;;;;;1.45;1.02;;;;;;;21.31;57.38;95030.41;5071779;28;20202;-75
2023/09/27 07:42:42;;;;;;;0.30;0.30;;;;;;;21.54;57.62;95017.09;5071680;28;20191;-74
2023/09/27 07:45:20;;;;;;;0.55;0.30;;;;;;;21.93;56.68;95009.72;5071529;28;20241;-74
2023/09/27 07:47:48;;;;;;;3.42;0.68;;;;;;;22.31;55.60;94999.16;5071521;28;20191;-74
2023/09/27 07:50:15;;;;;;;0.32;0.32;;;;;;;22.70;54.94;95002.69;5071294;28;20715;-77
2023/09/27 07:52:43;;;;;;;0.17;0.17;;;;;;;22.03;56.02;95005.44;5071101;28;20317;-73
2023/09/27 07:55:14;;;;;;;0.47;0.40;;;;;;;21.62;56.94;95004.91;5071357;28;20598;-71
2023/09/27 07:57:43;;;;;;;0.20;0.20;;;;;;;21.54;56.45;95006.06;5071311;28;20179;-75
2023/09/27 08:00:15;;;;;;;1.48;1.00;;;;;;;21.74;56.40;95010.06;5070911;28;20223;-75
2023/09/27 08:02:42;;;;;;;2.35;1.10;;;;;;;21.80;55.25;95003.00;5072160;28;20191;-74
2023/09/27 08:05:10;;;;;;;1.75;1.10;;;;;;;21.74;55.18;95004.53;5071568;28;21013;-73
2023/09/27 08:07:37;;;;;;;1.02;0.88;;;;;;;21.71;54.77;95001.78;5071032;28;20219;-72
2023/09/27 08:10:05;;;;;;;1.55;1.02;;;;;;;21.87;54.30;94997.47;5070623;28;20257;-73
2023/09/27 08:12:36;;;;;;;0.38;0.38;;;;;;;22.28;54.13;94991.66;5070994;28;20188;-73
2023/09/27 08:15:04;;;;;;;0.30;0.30;;;;;;;22.14;53.46;94994.44;5071186;28;20613;-72
2023/09/27 08:17:31;;;;;;;0.30;0.30;;;;;;;22.03;54.37;94999.13;5070996;28;20213;-72
2023/09/27 08:19:58;;;;;;;1.40;0.80;;;;;;;22.13;53.38;94993.66;5070827;28;20203;-72
2023/09/27 08:22:25;;;;;;;1.60;0.93;;;;;;;22.20;53.49;94988.13;5070701;28;20579;-72
2023/09/27 08:24:52;;;;;;;0.40;0.40;;;;;;;22.14;53.71;94983.41;5070235;28;20210;-72
2023/09/27 08:27:18;;;;;;;0.90;0.63;;;;;;;21.94;53.40;94986.47;5055825;28;20215;-74
2023/09/27 08:29:47;;;;;;;0.25;0.25;;;;;;;21.56;52.63;94996.25;5050519;28;20540;-74
2023/09/27 08:32:13;;;;;;;12.68;0.55;;;;;;;21.75;51.37;94999.81;5050498;28;20280;-75
2023/09/27 08:34:40;;;;;;;0.20;0.20;;;;;;;22.11;51.36;94984.19;5050482;28;20638;-74
2023/09/27 08:37:07;;;;;;;1.10;0.32;;;;;;;22.27;49.71;94984.59;5049510;28;20212;-74
2023/09/27 08:39:34;;;;;;;1.23;0.90;;;;;;;22.51;50.50;94985.75;5050245;28;20277;-73
2023/09/27 08:42:02;;;;;;;0.82;0.80;;;;;;;22.45;48.57;94988.13;5049442;28;20216;-74
2023/09/27 08:44:29;;;;;;;1.25;1.00;;;;;;;22.06;49.63;94981.78;5050121;28;20211;-72
2023/09/27 08:46:58;;;;;;;0.40;0.40;;;;;;;21.85;49.70;94994.34;5050142;28;20614;-72
2023/09/27 08:49:26;;;;;;;1.27;0.68;;;;;;;21.98;50.02;94981.75;5050569;28;20254;-74
2023/09/27 08:51:55;;;;;;;1.17;1.08;;;;;;;22.13;49.81;94981.81;5049818;28;20298;-73
2023/09/27 08:54:22;;;;;;;0.98;0.80;;;;;;;22.41;49.40;94987.34;5050416;28;20652;-73
2023/09/27 08:56:50;;;;;;;1.52;1.00;;;;;;;22.25;49.85;94984.97;5049537;28;20690;-73
2023/09/27 08:59:18;;;;;;;0.60;0.40;;;;;;;22.51;49.25;94974.72;5050483;28;20318;-72
2023/09/27 09:01:45;;;;;;;0.70;0.70;;;;;;;22.33;49.83;94974.72;5049447;28;20214;-73
2023/09/27 09:04:14;;;;;;;1.65;1.25;;;;;;;22.67;49.38;94978.66;5050229;28;20196;-74
2023/09/27 09:06:41;;;;;;;0.40;0.32;;;;;;;22.62;48.84;94967.22;5050282;28;20219;-74
2023/09/27 09:09:11;;;;;;;0.20;0.20;;;;;;;22.74;48.76;94977.06;5050394;28;20572;-73
2023/09/27 09:11:43;;;;;;;1.02;0.32;;;;;;;22.92;48.50;94973.13;5050477;28;20274;-73
2023/09/27 09:14:10;;;;;;;0.45;0.30;;;;;;;22.58;50.41;94975.50;5054197;28;20548;-74
2023/09/27 09:16:47;;;;;;;0.82;0.40;;;;;;;22.62;49.14;94976.28;5054353;28;20652;-73
2023/09/27 09:19:31;;;;;;;0.40;0.40;;;;;;;22.88;48.77;94977.06;5054550;28;20211;-75
2023/09/27 09:22:00;;;;;;;3.17;1.13;;;;;;;22.64;48.94;94965.63;5053983;28;20198;-73
2023/09/27 09:24:27;;;;;;;1.88;1.40;;;;;;;22.67;49.15;94978.66;5054084;28;20203;-76
2023/09/27 09:27:07;;;;;;;1.85;1.10;;;;;;;23.06;48.84;94977.03;5065135;28;20213;-76
2023/09/27 09:29:48;;;;;;;1.10;0.98;;;;;;;23.19;48.39;94956.06;5074155;28;20182;-74
2023/09/27 09:32:15;;;;;;;1.92;1.27;;;;;;;23.59;49.19;94954.72;5074074;28;20210;-74
2023/09/27 09:34:44;;;;;;;1.55;0.88;;;;;;;23.46;49.26;94961.88;5074028;28;20607;-75
2023/09/27 09:37:19;;;;;;;1.40;1.23;;;;;;;23.28;49.46;94948.91;5074166;28;20207;-75
2023/09/27 09:39:47;;;;;;;1.35;0.95;;;;;;;23.78;48.70;94956.22;5073785;28;20210;-75
2023/09/27 09:42:15;;;;;;;1.98;0.98;;;;;;;22.92;49.80;94977.84;5073218;28;20203;-73
2023/09/27 09:44:41;;;;;;;1.48;0.90;;;;;;;23.11;49.80;94960.81;5073547;28;20296;-74
2023/09/27 09:47:14;;;;;;;0.70;0.68;;;;;;;23.53;49.21;94939.72;5073919;28;20543;-72
2023/09/27 09:49:41;;;;;;;1.13;0.95;;;;;;;23.36;48.84;94944.94;5073477;28;20610;-74
2023/09/27 09:52:12;;;;;;;1.40;1.30;;;;;;;23.79;47.61;94941.94;5073769;28;20237;-75
2023/09/27 09:54:46;;;;;;;0.68;0.68;;;;;;;24.32;46.70;94941.63;5073310;28;20317;-73
2023/09/27 09:57:13;;;;;;;0.30;0.30;;;;;;;24.30;46.33;94948.78;5073203;28;20217;-73
2023/09/27 09:59:49;;;;;;;1.25;0.45;;;;;;;24.15;46.84;94939.75;5073141;28;20253;-78
2023/09/27 10:02:20;;;;;;;1.13;0.50;;;;;;;24.59;46.28;94939.03;5073318;28;20186;-76
2023/09/27 10:04:55;;;;;;;1.35;1.20;;;;;;;24.42;44.73;94937.19;5073100;28;20191;-78
2023/09/27 10:07:24;;;;;;;1.20;1.00;;;;;;;23.69;46.26;94931.75;5073464;28;20214;-74
2023/09/27 10:09:52;;;;;;;1.17;1.08;;;;;;;23.46;46.68;94923.94;5072127;28;20233;-77
2023/09/27 10:12:21;;;;;;;1.20;1.00;;;;;;;23.28;46.66;94940.63;5072767;28;20294;-76
2023/09/27 10:14:49;;;;;;;2.63;1.00;;;;;;;23.71;46.26;94923.84;5072508;28;20269;-77
2023/09/27 10:17:25;;;;;;;2.75;0.98;;;;;;;23.89;46.58;94916.22;5073337;28;20218;-75
2023/09/27 10:20:12;;;;;;;1.17;0.95;;;;;;;23.72;46.56;94926.19;5073365;28;20674;-78
2023/09/27 10:22:42;;;;;;;1.08;0.98;;;;;;;23.38;46.52;94923.19;5072959;28;20199;-77
2023/09/27 10:25:34;;;;;;;1.20;1.10;;;;;;;23.78;46.22;94929.31;5072226;28;20256;-78
2023/09/27 10:28:12;;;;;;;1.83;1.40;;;;;;;23.79;45.23;94928.13;5044199;28;20199;-78
2023/09/27 10:31:17;;;;;;;1.30;1.20;;;;;;;23.79;45.36;94919.81;5053334;28;20299;-77
2023/09/27 10:33:44;;;;;;;2.10;1.45;;;;;;;23.76;45.36;94912.34;5052750;28;20198;-76
2023/09/27 10:36:31;;;;;;;0.40;0.40;;;;;;;23.68;46.08;94916.34;5052259;28;20227;-79
2023/09/27 10:39:05;;;;;;;1.75;1.00;;;;;;;23.50;45.13;94912.88;5052529;28;20203;-80
2023/09/27 10:41:49;;;;;;;1.42;0.90;;;;;;;23.64;45.40;94907.28;5053147;28;20199;-78
2023/09/27 10:44:31;;;;;;;1.50;1.17;;;;;;;23.95;45.13;94899.94;5052772;28;20210;-78
2023/09/27 10:46:59;;;;;;;1.60;1.02;;;;;;;24.21;45.44;94896.56;5049158;28;20207;-77
2023/09/27 10:49:27;;;;;;;1.15;1.05;;;;;;;23.99;44.52;94907.03;5052614;28;20203;-77
2023/09/27 10:51:54;;;;;;;1.05;0.93;;;;;;;23.74;44.57;94900.91;5052433;28;20204;-79
2023/09/27 10:54:28;;;;;;;1.00;0.90;;;;;;;23.69;45.06;94902.09;5052142;28;20285;-77
2023/09/27 10:56:56;;;;;;;2.58;1.20;;;;;;;24.03;45.01;94887.66;5052379;28;20196;-79
2023/09/27 10:59:26;;;;;;;1.15;1.05;;;;;;;24.47;45.37;94889.63;5052785;28;20212;-77
2023/09/27 11:01:53;;;;;;;1.35;1.00;;;;;;;24.57;44.74;94891.53;5052493;28;20217;-78
2023/09/27 11:04:23;;;;;;;1.27;0.90;;;;;;;24.22;45.97;94876.00;5051966;28;20258;-78
2023/09/27 11:06:50;;;;;;;1.80;1.15;;;;;;;23.78;46.20;94882.28;5052570;28;20219;-76
2023/09/27 11:09:19;;;;;;;1.23;1.00;;;;;;;23.43;47.32;94879.72;5052445;28;20215;-76
2023/09/27 11:11:48;;;;;;;1.35;0.82;;;;;;;23.47;47.60;94880.50;5052019;28;20704;-77
2023/09/27 11:14:26;;;;;;;1.73;1.05;;;;;;;23.41;48.46;94877.34;5052293;28;20239;-76
2023/09/27 11:16:52;;;;;;;1.30;1.02;;;;;;;23.75;47.92;94874.81;5054264;28;20203;-76
2023/09/27 11:19:27;;;;;;;2.28;1.08;;;;;;;23.92;47.63;94876.63;5062413;28;20199;-77
2023/09/27 11:21:54;;;;;;;0.52;0.52;;;;;;;23.79;49.01;94875.53;5061373;28;20187;-77
2023/09/27 11:24:21;;;;;;;1.60;1.40;;;;;;;23.17;50.17;94883.78;5060903;28;20576;-77
2023/09/27 11:26:49;;;;;;;1.58;1.23;;;;;;;22.82;51.63;94873.69;5062291;28;20275;-77
2023/09/27 11:29:23;;;;;;;1.30;1.20;;;;;;;22.81;52.21;94874.88;5062536;28;20206;-76
2023/09/27 11:31:57;;;;;;;0.50;0.50;;;;;;;22.90;51.24;94878.00;5065853;28;20202;-77
2023/09/27 11:34:23;;;;;;;0.40;0.32;;;;;;;22.85;50.54;94870.88;5070663;28;20301;-78
2023/09/27 11:36:52;;;;;;;1.45;1.35;;;;;;;23.49;49.22;94878.09;5072445;28;20226;-78
2023/09/27 11:39:20;;;;;;;0.10;0.10;;;;;;;24.15;48.93;94875.28;5070978;28;20242;-76
2023/09/27 11:41:47;;;;;;;1.75;0.75;;;;;;;23.99;50.14;94873.81;5068050;28;20286;-78